sensor_id;sensor_type;location;lat;lon;timestamp;pressure;altitude;pressure_sealevel;temperature;humidity
35577;BME280;21680;52.400;16.920;2023-04-23T00:02:08;100196.35;;;11.48;48.19
35577;BME280;21680;52.400;16.920;2023-04-23T00:04:36;100200.78;;;11.45;48.21
35577;BME280;21680;52.400;16.920;2023-04-23T00:07:03;100194.48;;;11.43;48.31
35577;BME280;21680;52.400;16.920;2023-04-23T00:09:31;100191.18;;;11.41;48.48
35577;BME280;21680;52.400;16.920;2023-04-23T00:11:58;100186.65;;;11.38;48.51
35577;BME280;21680;52.400;16.920;2023-04-23T00:14:24;100183.55;;;11.36;48.50
35577;BME280;21680;52.400;16.920;2023-04-23T00:16:50;100179.17;;;11.34;48.46
35577;BME280;21680;52.400;16.920;2023-04-23T00:19:16;100175.36;;;11.32;48.60
35577;BME280;21680;52.400;16.920;2023-04-23T00:21:41;100178.21;;;11.29;48.61
35577;BME280;21680;52.400;16.920;2023-04-23T00:24:06;100173.16;;;11.26;48.64
35577;BME280;21680;52.400;16.920;2023-04-23T00:26:32;100170.55;;;11.25;48.76
35577;BME280;21680;52.400;16.920;2023-04-23T00:28:57;100166.56;;;11.23;48.87
35577;BME280;21680;52.400;16.920;2023-04-23T00:31:22;100165.95;;;11.21;48.83
35577;BME280;21680;52.400;16.920;2023-04-23T00:33:48;100163.05;;;11.18;48.92
35577;BME280;21680;52.400;16.920;2023-04-23T00:36:14;100163.91;;;11.16;48.96
35577;BME280;21680;52.400;16.920;2023-04-23T00:38:39;100159.60;;;11.13;49.03
35577;BME280;21680;52.400;16.920;2023-04-23T00:41:05;100157.59;;;11.10;49.29
35577;BME280;21680;52.400;16.920;2023-04-23T00:43:31;100151.17;;;11.06;49.18
35577;BME280;21680;52.400;16.920;2023-04-23T00:45:57;100149.52;;;11.04;49.22
35577;BME280;21680;52.400;16.920;2023-04-23T00:48:23;100144.98;;;11.02;49.21
35577;BME280;21680;52.400;16.920;2023-04-23T00:50:48;100143.70;;;10.99;49.39
35577;BME280;21680;52.400;16.920;2023-04-23T00:53:13;100142.59;;;10.96;49.43
35577;BME280;21680;52.400;16.920;2023-04-23T00:55:39;100141.27;;;10.94;49.55
35577;BME280;21680;52.400;16.920;2023-04-23T00:58:04;100136.54;;;10.93;49.51
35577;BME280;21680;52.400;16.920;2023-04-23T01:00:32;100137.03;;;10.90;49.71
35577;BME280;21680;52.400;16.920;2023-04-23T01:02:58;100132.86;;;10.88;49.70
35577;BME280;21680;52.400;16.920;2023-04-23T01:05:26;100136.39;;;10.85;49.76
35577;BME280;21680;52.400;16.920;2023-04-23T01:07:52;100132.25;;;10.82;49.85
35577;BME280;21680;52.400;16.920;2023-04-23T01:10:18;100129.71;;;10.80;49.80
35577;BME280;21680;52.400;16.920;2023-04-23T01:12:43;100132.70;;;10.77;49.82
35577;BME280;21680;52.400;16.920;2023-04-23T01:15:09;100128.17;;;10.75;50.00
35577;BME280;21680;52.400;16.920;2023-04-23T01:17:34;100126.46;;;10.73;50.01
35577;BME280;21680;52.400;16.920;2023-04-23T01:20:01;100132.28;;;10.71;50.14
35577;BME280;21680;52.400;16.920;2023-04-23T01:22:26;100132.55;;;10.70;50.27
35577;BME280;21680;52.400;16.920;2023-04-23T01:24:51;100133.34;;;10.68;50.12
35577;BME280;21680;52.400;16.920;2023-04-23T01:27:17;100133.75;;;10.67;50.23
35577;BME280;21680;52.400;16.920;2023-04-23T01:29:44;100133.12;;;10.66;50.36
35577;BME280;21680;52.400;16.920;2023-04-23T01:32:12;100131.64;;;10.63;50.44
35577;BME280;21680;52.400;16.920;2023-04-23T01:34:39;100127.33;;;10.60;50.48
35577;BME280;21680;52.400;16.920;2023-04-23T01:37:05;100124.77;;;10.58;50.55
35577;BME280;21680;52.400;16.920;2023-04-23T01:39:31;100122.55;;;10.56;50.56
35577;BME280;21680;52.400;16.920;2023-04-23T01:41:58;100122.86;;;10.53;50.60
35577;BME280;21680;52.400;16.920;2023-04-23T01:44:24;100116.39;;;10.51;50.59
35577;BME280;21680;52.400;16.920;2023-04-23T01:46:49;100114.31;;;10.50;50.71
35577;BME280;21680;52.400;16.920;2023-04-23T01:49:15;100114.46;;;10.47;50.75
35577;BME280;21680;52.400;16.920;2023-04-23T01:51:41;100114.40;;;10.44;50.76
35577;BME280;21680;52.400;16.920;2023-04-23T01:54:07;100114.16;;;10.42;50.91
35577;BME280;21680;52.400;16.920;2023-04-23T01:56:33;100113.09;;;10.39;50.92
35577;BME280;21680;52.400;16.920;2023-04-23T01:59:00;100113.38;;;10.37;50.99
35577;BME280;21680;52.400;16.920;2023-04-23T02:01:39;100110.70;;;10.33;51.03
35577;BME280;21680;52.400;16.920;2023-04-23T02:04:06;100112.63;;;10.31;51.09
35577;BME280;21680;52.400;16.920;2023-04-23T02:06:31;100109.52;;;10.29;51.14
35577;BME280;21680;52.400;16.920;2023-04-23T02:08:56;100107.16;;;10.26;51.25
35577;BME280;21680;52.400;16.920;2023-04-23T02:11:21;100109.77;;;10.23;51.23
35577;BME280;21680;52.400;16.920;2023-04-23T02:13:46;100110.27;;;10.21;51.32
35577;BME280;21680;52.400;16.920;2023-04-23T02:16:12;100112.82;;;10.20;51.22
35577;BME280;21680;52.400;16.920;2023-04-23T02:18:38;100109.73;;;10.17;51.36
35577;BME280;21680;52.400;16.920;2023-04-23T02:21:04;100107.85;;;10.15;51.46
35577;BME280;21680;52.400;16.920;2023-04-23T02:23:30;100106.75;;;10.12;51.49
35577;BME280;21680;52.400;16.920;2023-04-23T02:25:55;100101.93;;;10.08;51.50
35577;BME280;21680;52.400;16.920;2023-04-23T02:28:21;100100.83;;;10.05;51.50
35577;BME280;21680;52.400;16.920;2023-04-23T02:30:46;100104.58;;;10.02;51.59
35577;BME280;21680;52.400;16.920;2023-04-23T02:33:12;100105.27;;;9.99;51.76
35577;BME280;21680;52.400;16.920;2023-04-23T02:35:38;100105.10;;;9.95;51.79
35577;BME280;21680;52.400;16.920;2023-04-23T02:38:05;100103.67;;;9.91;51.76
35577;BME280;21680;52.400;16.920;2023-04-23T02:40:30;100101.22;;;9.87;51.95
35577;BME280;21680;52.400;16.920;2023-04-23T02:42:55;100100.13;;;9.84;51.91
35577;BME280;21680;52.400;16.920;2023-04-23T02:45:21;100100.98;;;9.81;52.05
35577;BME280;21680;52.400;16.920;2023-04-23T02:47:46;100102.41;;;9.77;52.09
35577;BME280;21680;52.400;16.920;2023-04-23T02:50:11;100101.15;;;9.74;52.22
35577;BME280;21680;52.400;16.920;2023-04-23T02:52:36;100102.54;;;9.71;52.23
35577;BME280;21680;52.400;16.920;2023-04-23T02:55:02;100101.20;;;9.69;52.39
35577;BME280;21680;52.400;16.920;2023-04-23T02:57:28;100102.75;;;9.67;52.35
35577;BME280;21680;52.400;16.920;2023-04-23T02:59:53;100101.80;;;9.64;52.39
35577;BME280;21680;52.400;16.920;2023-04-23T03:02:18;100100.48;;;9.62;52.50
35577;BME280;21680;52.400;16.920;2023-04-23T03:04:44;100099.23;;;9.58;52.48
35577;BME280;21680;52.400;16.920;2023-04-23T03:07:10;100097.21;;;9.56;52.70
35577;BME280;21680;52.400;16.920;2023-04-23T03:09:37;100097.37;;;9.53;52.76
35577;BME280;21680;52.400;16.920;2023-04-23T03:12:03;100098.56;;;9.50;52.79
35577;BME280;21680;52.400;16.920;2023-04-23T03:14:28;100094.60;;;9.47;52.81
35577;BME280;21680;52.400;16.920;2023-04-23T03:16:53;100095.28;;;9.44;52.87
35577;BME280;21680;52.400;16.920;2023-04-23T03:19:18;100091.13;;;9.41;52.94
35577;BME280;21680;52.400;16.920;2023-04-23T03:21:44;100090.69;;;9.39;53.01
35577;BME280;21680;52.400;16.920;2023-04-23T03:24:12;100089.92;;;9.36;53.09
35577;BME280;21680;52.400;16.920;2023-04-23T03:26:37;100089.99;;;9.35;53.13
35577;BME280;21680;52.400;16.920;2023-04-23T03:29:02;100084.96;;;9.32;53.27
35577;BME280;21680;52.400;16.920;2023-04-23T03:31:30;100086.73;;;9.29;53.34
35577;BME280;21680;52.400;16.920;2023-04-23T03:33:55;100085.43;;;9.26;53.40
35577;BME280;21680;52.400;16.920;2023-04-23T03:36:20;100078.60;;;9.23;53.50
35577;BME280;21680;52.400;16.920;2023-04-23T03:38:46;100078.20;;;9.21;53.67
35577;BME280;21680;52.400;16.920;2023-04-23T03:41:11;100079.58;;;9.18;53.61
35577;BME280;21680;52.400;16.920;2023-04-23T03:43:36;100079.89;;;9.15;53.70
35577;BME280;21680;52.400;16.920;2023-04-23T03:46:02;100080.37;;;9.12;53.77
35577;BME280;21680;52.400;16.920;2023-04-23T03:48:27;100082.58;;;9.11;53.86
35577;BME280;21680;52.400;16.920;2023-04-23T03:50:53;100079.61;;;9.09;53.86
35577;BME280;21680;52.400;16.920;2023-04-23T03:53:19;100081.59;;;9.09;53.99
35577;BME280;21680;52.400;16.920;2023-04-23T03:55:45;100080.37;;;9.08;54.14
35577;BME280;21680;52.400;16.920;2023-04-23T03:58:10;100078.20;;;9.09;54.19
35577;BME280;21680;52.400;16.920;2023-04-23T04:00:37;100080.13;;;9.10;54.35
35577;BME280;21680;52.400;16.920;2023-04-23T04:03:02;100081.52;;;9.10;54.44
35577;BME280;21680;52.400;16.920;2023-04-23T04:05:28;100083.39;;;9.13;54.52
35577;BME280;21680;52.400;16.920;2023-04-23T04:07:53;100082.33;;;9.13;54.50
35577;BME280;21680;52.400;16.920;2023-04-23T04:10:19;100081.09;;;9.12;54.60
35577;BME280;21680;52.400;16.920;2023-04-23T04:12:45;100082.70;;;9.12;54.74
35577;BME280;21680;52.400;16.920;2023-04-23T04:15:12;100082.35;;;9.12;54.82
35577;BME280;21680;52.400;16.920;2023-04-23T04:17:38;100081.61;;;9.12;54.82
35577;BME280;21680;52.400;16.920;2023-04-23T04:20:05;100082.35;;;9.12;54.82
35577;BME280;21680;52.400;16.920;2023-04-23T04:22:32;100082.33;;;9.12;54.90
35577;BME280;21680;52.400;16.920;2023-04-23T04:24:58;100082.30;;;9.13;55.01
35577;BME280;21680;52.400;16.920;2023-04-23T04:27:23;100084.95;;;9.14;54.91
35577;BME280;21680;52.400;16.920;2023-04-23T04:29:48;100083.09;;;9.15;55.10
35577;BME280;21680;52.400;16.920;2023-04-23T04:32:13;100080.02;;;9.16;55.16
35577;BME280;21680;52.400;16.920;2023-04-23T04:34:39;100082.64;;;9.17;55.32
35577;BME280;21680;52.400;16.920;2023-04-23T04:37:04;100086.89;;;9.18;55.30
35577;BME280;21680;52.400;16.920;2023-04-23T04:39:30;100084.71;;;9.19;55.38
35577;BME280;21680;52.400;16.920;2023-04-23T04:41:55;100082.71;;;9.19;55.43
35577;BME280;21680;52.400;16.920;2023-04-23T04:44:21;100083.42;;;9.19;55.52
35577;BME280;21680;52.400;16.920;2023-04-23T04:46:47;100083.02;;;9.20;55.57
35577;BME280;21680;52.400;16.920;2023-04-23T04:49:12;100088.32;;;9.21;55.61
35577;BME280;21680;52.400;16.920;2023-04-23T04:51:39;100083.10;;;9.22;55.75
35577;BME280;21680;52.400;16.920;2023-04-23T04:54:05;100084.05;;;9.25;55.81
35577;BME280;21680;52.400;16.920;2023-04-23T04:56:34;100080.90;;;9.27;55.86
35577;BME280;21680;52.400;16.920;2023-04-23T04:59:00;100081.49;;;9.30;55.88
35577;BME280;21680;52.400;16.920;2023-04-23T05:01:27;100080.11;;;9.33;55.89
35577;BME280;21680;52.400;16.920;2023-04-23T05:03:54;100077.33;;;9.35;56.04
35577;BME280;21680;52.400;16.920;2023-04-23T05:06:19;100073.77;;;9.38;56.01
35577;BME280;21680;52.400;16.920;2023-04-23T05:08:45;100071.81;;;9.42;56.14
35577;BME280;21680;52.400;16.920;2023-04-23T05:11:16;100071.20;;;9.48;56.25
35577;BME280;21680;52.400;16.920;2023-04-23T05:13:43;100068.66;;;9.52;56.31
35577;BME280;21680;52.400;16.920;2023-04-23T05:16:08;100063.46;;;9.57;56.27
35577;BME280;21680;52.400;16.920;2023-04-23T05:18:35;100062.75;;;9.60;56.31
35577;BME280;21680;52.400;16.920;2023-04-23T05:21:00;100060.61;;;9.64;56.36
35577;BME280;21680;52.400;16.920;2023-04-23T05:23:25;100060.56;;;9.68;56.41
35577;BME280;21680;52.400;16.920;2023-04-23T05:25:51;100059.45;;;9.73;56.45
35577;BME280;21680;52.400;16.920;2023-04-23T05:28:19;100059.19;;;9.78;56.55
35577;BME280;21680;52.400;16.920;2023-04-23T05:30:45;100060.20;;;9.83;56.49
35577;BME280;21680;52.400;16.920;2023-04-23T05:33:10;100060.48;;;9.88;56.56
35577;BME280;21680;52.400;16.920;2023-04-23T05:35:36;100062.85;;;9.94;56.50
35577;BME280;21680;52.400;16.920;2023-04-23T05:38:02;100060.89;;;10.01;56.66
35577;BME280;21680;52.400;16.920;2023-04-23T05:40:29;100060.06;;;10.07;56.63
35577;BME280;21680;52.400;16.920;2023-04-23T05:42:56;100059.55;;;10.14;56.80
35577;BME280;21680;52.400;16.920;2023-04-23T05:45:22;100061.67;;;10.21;56.73
35577;BME280;21680;52.400;16.920;2023-04-23T05:47:47;100057.02;;;10.29;56.79
35577;BME280;21680;52.400;16.920;2023-04-23T05:50:12;100054.95;;;10.37;56.81
35577;BME280;21680;52.400;16.920;2023-04-23T05:52:38;100056.09;;;10.46;56.85
35577;BME280;21680;52.400;16.920;2023-04-23T05:55:05;100053.77;;;10.56;56.82
35577;BME280;21680;52.400;16.920;2023-04-23T05:57:30;100053.42;;;10.65;56.91
35577;BME280;21680;52.400;16.920;2023-04-23T05:59:55;100046.68;;;10.78;57.00
35577;BME280;21680;52.400;16.920;2023-04-23T06:02:21;100046.00;;;10.91;57.01
35577;BME280;21680;52.400;16.920;2023-04-23T06:04:47;100041.60;;;11.02;57.02
35577;BME280;21680;52.400;16.920;2023-04-23T06:07:12;100041.46;;;11.15;57.05
35577;BME280;21680;52.400;16.920;2023-04-23T06:09:39;100039.34;;;11.24;57.01
35577;BME280;21680;52.400;16.920;2023-04-23T06:12:05;100036.61;;;11.34;57.04
35577;BME280;21680;52.400;16.920;2023-04-23T06:14:30;100038.11;;;11.46;57.08
35577;BME280;21680;52.400;16.920;2023-04-23T06:16:55;100035.24;;;11.58;57.03
35577;BME280;21680;52.400;16.920;2023-04-23T06:19:21;100035.21;;;11.71;57.09
35577;BME280;21680;52.400;16.920;2023-04-23T06:21:49;100035.46;;;11.86;56.93
35577;BME280;21680;52.400;16.920;2023-04-23T06:24:16;100033.58;;;12.00;57.06
35577;BME280;21680;52.400;16.920;2023-04-23T06:26:43;100032.73;;;12.17;56.97
35577;BME280;21680;52.400;16.920;2023-04-23T06:29:09;100034.92;;;12.31;56.89
35577;BME280;21680;52.400;16.920;2023-04-23T06:31:34;100036.67;;;12.47;56.91
35577;BME280;21680;52.400;16.920;2023-04-23T06:34:00;100035.23;;;12.64;56.91
35577;BME280;21680;52.400;16.920;2023-04-23T06:36:25;100033.60;;;12.76;56.81
35577;BME280;21680;52.400;16.920;2023-04-23T06:38:51;100033.33;;;12.89;56.78
35577;BME280;21680;52.400;16.920;2023-04-23T06:41:16;100030.26;;;13.03;56.71
35577;BME280;21680;52.400;16.920;2023-04-23T06:43:42;100029.33;;;13.15;56.61
35577;BME280;21680;52.400;16.920;2023-04-23T06:46:07;100028.36;;;13.25;56.41
35577;BME280;21680;52.400;16.920;2023-04-23T06:48:33;100024.86;;;13.34;56.42
35577;BME280;21680;52.400;16.920;2023-04-23T06:50:58;100025.84;;;13.47;56.33
35577;BME280;21680;52.400;16.920;2023-04-23T06:53:23;100021.73;;;13.63;56.25
35577;BME280;21680;52.400;16.920;2023-04-23T06:55:48;100024.95;;;13.79;56.17
35577;BME280;21680;52.400;16.920;2023-04-23T06:58:16;100022.20;;;13.96;55.91
35577;BME280;21680;52.400;16.920;2023-04-23T07:00:41;100018.31;;;14.08;55.80
35577;BME280;21680;52.400;16.920;2023-04-23T07:03:06;100010.39;;;14.19;55.70
35577;BME280;21680;52.400;16.920;2023-04-23T07:05:31;100010.56;;;14.30;55.50
35577;BME280;21680;52.400;16.920;2023-04-23T07:07:57;100011.65;;;14.40;55.44
35577;BME280;21680;52.400;16.920;2023-04-23T07:10:23;100011.02;;;14.49;55.31
35577;BME280;21680;52.400;16.920;2023-04-23T07:12:48;100007.56;;;14.58;55.20
35577;BME280;21680;52.400;16.920;2023-04-23T07:15:13;100011.96;;;14.67;55.11
35577;BME280;21680;52.400;16.920;2023-04-23T07:17:39;100012.38;;;14.76;54.83
35577;BME280;21680;52.400;16.920;2023-04-23T07:20:05;100006.58;;;14.84;54.92
35577;BME280;21680;52.400;16.920;2023-04-23T07:22:34;100006.36;;;14.95;54.65
35577;BME280;21680;52.400;16.920;2023-04-23T07:25:00;100000.67;;;15.04;54.49
35577;BME280;21680;52.400;16.920;2023-04-23T07:27:25;99996.38;;;15.13;54.34
35577;BME280;21680;52.400;16.920;2023-04-23T07:29:51;99991.39;;;15.20;54.30
35577;BME280;21680;52.400;16.920;2023-04-23T07:32:17;99994.21;;;15.31;54.25
35577;BME280;21680;52.400;16.920;2023-04-23T07:34:42;99989.67;;;15.44;54.26
35577;BME280;21680;52.400;16.920;2023-04-23T07:37:08;99990.98;;;15.57;53.85
35577;BME280;21680;52.400;16.920;2023-04-23T07:39:34;99986.23;;;15.70;53.82
35577;BME280;21680;52.400;16.920;2023-04-23T07:42:00;99987.28;;;15.83;53.65
35577;BME280;21680;52.400;16.920;2023-04-23T07:44:26;99979.02;;;15.92;53.37
35577;BME280;21680;52.400;16.920;2023-04-23T07:46:53;99977.91;;;16.04;53.38
35577;BME280;21680;52.400;16.920;2023-04-23T07:49:18;99975.59;;;16.17;53.30
35577;BME280;21680;52.400;16.920;2023-04-23T07:51:44;99973.44;;;16.31;52.99
35577;BME280;21680;52.400;16.920;2023-04-23T07:54:09;99966.04;;;16.41;52.71
35577;BME280;21680;52.400;16.920;2023-04-23T07:56:35;99967.34;;;16.54;52.70
35577;BME280;21680;52.400;16.920;2023-04-23T07:59:01;99967.88;;;16.66;52.39
35577;BME280;21680;52.400;16.920;2023-04-23T08:01:26;99963.18;;;16.77;52.19
35577;BME280;21680;52.400;16.920;2023-04-23T08:03:52;99963.35;;;16.88;52.01
35577;BME280;21680;52.400;16.920;2023-04-23T08:06:20;99960.77;;;16.96;51.67
35577;BME280;21680;52.400;16.920;2023-04-23T08:08:45;99961.36;;;17.04;51.62
35577;BME280;21680;52.400;16.920;2023-04-23T08:11:10;99960.62;;;17.17;51.25
35577;BME280;21680;52.400;16.920;2023-04-23T08:13:36;99957.73;;;17.29;50.96
35577;BME280;21680;52.400;16.920;2023-04-23T08:16:01;99958.27;;;17.37;50.60
35577;BME280;21680;52.400;16.920;2023-04-23T08:18:26;99959.29;;;17.44;50.50
35577;BME280;21680;52.400;16.920;2023-04-23T08:20:53;99949.84;;;17.51;50.31
35577;BME280;21680;52.400;16.920;2023-04-23T08:23:18;99952.16;;;17.56;50.24
35577;BME280;21680;52.400;16.920;2023-04-23T08:25:44;99956.77;;;17.66;50.33
35577;BME280;21680;52.400;16.920;2023-04-23T08:28:10;99955.42;;;17.78;50.07
35577;BME280;21680;52.400;16.920;2023-04-23T08:30:35;99952.41;;;17.86;49.77
35577;BME280;21680;52.400;16.920;2023-04-23T08:33:00;99946.43;;;17.95;49.55
35577;BME280;21680;52.400;16.920;2023-04-23T08:35:26;99944.42;;;18.03;49.42
35577;BME280;21680;52.400;16.920;2023-04-23T08:37:52;99944.90;;;18.14;49.08
35577;BME280;21680;52.400;16.920;2023-04-23T08:40:17;99942.76;;;18.20;48.72
35577;BME280;21680;52.400;16.920;2023-04-23T08:43:02;99937.59;;;18.27;48.54
35577;BME280;21680;52.400;16.920;2023-04-23T08:45:33;99935.29;;;18.35;48.47
35577;BME280;21680;52.400;16.920;2023-04-23T08:48:05;99928.27;;;18.43;48.19
35577;BME280;21680;52.400;16.920;2023-04-23T08:50:32;99929.74;;;18.51;47.85
35577;BME280;21680;52.400;16.920;2023-04-23T08:52:57;99920.66;;;18.60;48.04
35577;BME280;21680;52.400;16.920;2023-04-23T08:55:23;99915.56;;;18.68;48.00
35577;BME280;21680;52.400;16.920;2023-04-23T08:57:50;99910.22;;;18.75;47.73
35577;BME280;21680;52.400;16.920;2023-04-23T09:00:17;99905.75;;;18.81;47.62
35577;BME280;21680;52.400;16.920;2023-04-23T09:02:45;99904.96;;;18.92;47.59
35577;BME280;21680;52.400;16.920;2023-04-23T09:05:12;99907.04;;;19.05;47.49
35577;BME280;21680;52.400;16.920;2023-04-23T09:07:40;99901.89;;;19.16;47.13
35577;BME280;21680;52.400;16.920;2023-04-23T09:10:07;99903.05;;;19.23;46.19
35577;BME280;21680;52.400;16.920;2023-04-23T09:12:40;99898.06;;;19.28;45.92
35577;BME280;21680;52.400;16.920;2023-04-23T09:15:06;99895.40;;;19.31;45.91
35577;BME280;21680;52.400;16.920;2023-04-23T09:17:41;99892.78;;;19.36;45.52
35577;BME280;21680;52.400;16.920;2023-04-23T09:20:10;99890.77;;;19.44;45.43
35577;BME280;21680;52.400;16.920;2023-04-23T09:22:40;99887.36;;;19.56;45.47
35577;BME280;21680;52.400;16.920;2023-04-23T09:25:07;99887.14;;;19.67;45.46
35577;BME280;21680;52.400;16.920;2023-04-23T09:27:34;99886.57;;;19.79;45.36
35577;BME280;21680;52.400;16.920;2023-04-23T09:30:02;99878.81;;;19.91;45.30
35577;BME280;21680;52.400;16.920;2023-04-23T09:32:32;99875.27;;;20.01;45.26
35577;BME280;21680;52.400;16.920;2023-04-23T09:34:58;99868.23;;;20.12;45.11
35577;BME280;21680;52.400;16.920;2023-04-23T09:37:25;99869.63;;;20.22;45.13
35577;BME280;21680;52.400;16.920;2023-04-23T09:39:51;99868.39;;;20.37;44.86
35577;BME280;21680;52.400;16.920;2023-04-23T09:42:26;99864.56;;;20.45;44.61
35577;BME280;21680;52.400;16.920;2023-04-23T09:45:02;99861.00;;;20.52;44.19
35577;BME280;21680;52.400;16.920;2023-04-23T09:47:37;99868.05;;;20.57;44.02
35577;BME280;21680;52.400;16.920;2023-04-23T09:50:03;99862.15;;;20.66;43.77
35577;BME280;21680;52.400;16.920;2023-04-23T09:52:33;99859.33;;;20.76;43.66
35577;BME280;21680;52.400;16.920;2023-04-23T09:55:02;99851.32;;;20.83;43.09
35577;BME280;21680;52.400;16.920;2023-04-23T09:57:30;99848.38;;;20.91;43.01
35577;BME280;21680;52.400;16.920;2023-04-23T09:59:56;99850.72;;;21.02;43.20
35577;BME280;21680;52.400;16.920;2023-04-23T10:02:26;99843.52;;;21.14;42.88
35577;BME280;21680;52.400;16.920;2023-04-23T10:04:53;99847.92;;;21.24;42.67
35577;BME280;21680;52.400;16.920;2023-04-23T10:07:18;99848.62;;;21.34;41.86
35577;BME280;21680;52.400;16.920;2023-04-23T10:09:45;99840.00;;;21.38;41.49
35577;BME280;21680;52.400;16.920;2023-04-23T10:12:11;99839.54;;;21.46;41.12
35577;BME280;21680;52.400;16.920;2023-04-23T10:14:37;99842.35;;;21.58;40.82
35577;BME280;21680;52.400;16.920;2023-04-23T10:17:03;99842.71;;;21.68;40.59
35577;BME280;21680;52.400;16.920;2023-04-23T10:19:31;99841.30;;;21.79;40.56
35577;BME280;21680;52.400;16.920;2023-04-23T10:21:58;99838.42;;;21.89;40.42
35577;BME280;21680;52.400;16.920;2023-04-23T10:24:32;99833.73;;;21.95;40.40
35577;BME280;21680;52.400;16.920;2023-04-23T10:26:59;99837.48;;;22.02;40.41
35577;BME280;21680;52.400;16.920;2023-04-23T10:29:28;99836.79;;;22.14;40.30
35577;BME280;21680;52.400;16.920;2023-04-23T10:31:55;99834.92;;;22.26;39.66
35577;BME280;21680;52.400;16.920;2023-04-23T10:34:23;99830.46;;;22.37;39.53
35577;BME280;21680;52.400;16.920;2023-04-23T10:36:50;99836.27;;;22.51;39.68
35577;BME280;21680;52.400;16.920;2023-04-23T10:39:16;99833.47;;;22.64;39.31
35577;BME280;21680;52.400;16.920;2023-04-23T10:41:42;99834.61;;;22.75;38.51
35577;BME280;21680;52.400;16.920;2023-04-23T10:44:10;99838.72;;;22.80;38.15
35577;BME280;21680;52.400;16.920;2023-04-23T10:46:36;99838.48;;;22.77;37.86
35577;BME280;21680;52.400;16.920;2023-04-23T10:49:12;99837.67;;;22.72;37.94
35577;BME280;21680;52.400;16.920;2023-04-23T10:51:44;99834.71;;;22.66;37.70
35577;BME280;21680;52.400;16.920;2023-04-23T10:54:14;99832.98;;;22.68;37.46
35577;BME280;21680;52.400;16.920;2023-04-23T10:56:41;99828.82;;;22.68;37.23
35577;BME280;21680;52.400;16.920;2023-04-23T10:59:16;99831.95;;;22.67;37.10
35577;BME280;21680;52.400;16.920;2023-04-23T11:01:48;99831.31;;;22.75;37.30
35577;BME280;21680;52.400;16.920;2023-04-23T11:04:24;99832.52;;;22.90;37.40
35577;BME280;21680;52.400;16.920;2023-04-23T11:06:54;99836.65;;;22.98;37.63
35577;BME280;21680;52.400;16.920;2023-04-23T11:11:59;99838.38;;;22.84;36.81
35577;BME280;21680;52.400;16.920;2023-04-23T11:14:52;99837.88;;;22.87;37.16
35577;BME280;21680;52.400;16.920;2023-04-23T11:22:39;99844.17;;;23.12;37.15
35577;BME280;21680;52.400;16.920;2023-04-23T11:25:10;99840.06;;;23.18;37.08
35577;BME280;21680;52.400;16.920;2023-04-23T11:27:42;99834.78;;;23.29;37.21
35577;BME280;21680;52.400;16.920;2023-04-23T11:30:16;99834.40;;;23.47;36.93
35577;BME280;21680;52.400;16.920;2023-04-23T11:32:48;99830.76;;;23.55;36.47
35577;BME280;21680;52.400;16.920;2023-04-23T11:35:14;99831.39;;;23.42;36.21
35577;BME280;21680;52.400;16.920;2023-04-23T11:37:43;99834.45;;;23.27;36.19
35577;BME280;21680;52.400;16.920;2023-04-23T11:40:15;99826.27;;;23.15;36.17
35577;BME280;21680;52.400;16.920;2023-04-23T11:42:48;99826.55;;;23.11;36.23
35577;BME280;21680;52.400;16.920;2023-04-23T11:45:24;99832.46;;;23.02;36.22
35577;BME280;21680;52.400;16.920;2023-04-23T11:47:55;99837.24;;;22.90;36.11
35577;BME280;21680;52.400;16.920;2023-04-23T11:50:30;99829.64;;;22.86;36.47
35577;BME280;21680;52.400;16.920;2023-04-23T11:53:03;99832.23;;;22.84;36.40
35577;BME280;21680;52.400;16.920;2023-04-23T11:55:28;99838.41;;;22.75;36.49
35577;BME280;21680;52.400;16.920;2023-04-23T11:57:56;99842.53;;;22.61;36.63
35577;BME280;21680;52.400;16.920;2023-04-23T12:00:23;99842.50;;;22.42;36.93
35577;BME280;21680;52.400;16.920;2023-04-23T12:02:55;99842.81;;;22.27;37.26
35577;BME280;21680;52.400;16.920;2023-04-23T12:05:42;99841.98;;;22.13;37.66
35577;BME280;21680;52.400;16.920;2023-04-23T12:08:10;99846.02;;;22.06;38.00
35577;BME280;21680;52.400;16.920;2023-04-23T12:10:53;99847.22;;;22.02;38.18
35577;BME280;21680;52.400;16.920;2023-04-23T12:13:24;99845.98;;;21.84;38.02
35577;BME280;21680;52.400;16.920;2023-04-23T12:15:53;99850.55;;;21.63;38.30
35577;BME280;21680;52.400;16.920;2023-04-23T12:18:52;99851.89;;;21.48;38.77
35577;BME280;21680;52.400;16.920;2023-04-23T12:21:11;99858.45;;;21.39;38.94
35577;BME280;21680;52.400;16.920;2023-04-23T12:23:39;99859.64;;;21.29;39.19
35577;BME280;21680;52.400;16.920;2023-04-23T12:26:13;99862.21;;;21.27;39.43
35577;BME280;21680;52.400;16.920;2023-04-23T12:28:46;99863.83;;;21.29;39.77
35577;BME280;21680;52.400;16.920;2023-04-23T12:31:21;99863.87;;;21.32;40.03
35577;BME280;21680;52.400;16.920;2023-04-23T12:33:46;99871.27;;;21.33;40.20
35577;BME280;21680;52.400;16.920;2023-04-23T12:36:14;99875.81;;;21.20;40.47
35577;BME280;21680;52.400;16.920;2023-04-23T12:38:41;99868.38;;;21.00;40.79
35577;BME280;21680;52.400;16.920;2023-04-23T12:41:06;99866.90;;;20.86;40.98
35577;BME280;21680;52.400;16.920;2023-04-23T12:43:32;99869.44;;;20.74;41.31
35577;BME280;21680;52.400;16.920;2023-04-23T12:45:57;99865.86;;;20.68;41.56
35577;BME280;21680;52.400;16.920;2023-04-23T12:48:22;99869.56;;;20.68;41.72
35577;BME280;21680;52.400;16.920;2023-04-23T12:50:48;99869.77;;;20.64;42.00
35577;BME280;21680;52.400;16.920;2023-04-23T12:53:14;99867.95;;;20.60;42.13